Terminal Aerodrome Forecast
Issued by NWS Upton, NY

Home | Current Version | Previous Version | Text Only | Print | Product List | Glossary On
Versions: 1 2 3 4 5 6 7 8 9 10 11 12 13 14 15 16 17 18 19 20 21 22 23 24 25 26 27 28 29 30 31 32 33 34 35 36 37 38 39 40 41 42 43 44 45 46 47
007
FTUS41 KOKX 192034 AAB
TAFLGA
TAF AMD
KLGA 192034Z 1921/2018 32010KT P6SM SCT030 SCT250
      TEMPO 1921/1923 BKN030
     FM200200 36006KT P6SM SCT025 SCT250
     FM200900 VRB03KT P6SM SCT025 SCT250
     FM201500 07004KT P6SM SCT020 BKN200
     FM201700 11005KT P6SM BKN020 BKN150=

USA.gov is the U.S. government's official web portal to all federal, state and local government web resources and services.